createdAt,value
2018-08-12T00:00:55.899Z,14.54
2018-08-12T00:01:55.891Z,14.53
2018-08-12T00:02:55.876Z,14.48
2018-08-12T00:03:55.900Z,14.50
2018-08-12T00:04:55.856Z,14.48
2018-08-12T00:05:55.843Z,14.55
2018-08-12T00:06:55.836Z,14.45
2018-08-12T00:07:55.868Z,14.45
2018-08-12T00:08:55.812Z,14.54
2018-08-12T00:09:56.644Z,14.50
2018-08-12T00:10:55.794Z,14.40
2018-08-12T00:11:55.780Z,14.51
2018-08-12T00:12:55.831Z,14.40
2018-08-12T00:13:55.782Z,14.33
2018-08-12T00:14:55.741Z,14.33
2018-08-12T00:15:55.764Z,14.30
2018-08-12T00:16:55.718Z,14.30
2018-08-12T00:17:55.714Z,14.33
2018-08-12T00:18:55.697Z,14.25
2018-08-12T00:19:55.690Z,14.26
2018-08-12T00:20:55.730Z,14.23
2018-08-12T00:21:55.667Z,14.15
2018-08-12T00:22:55.651Z,14.26
2018-08-12T00:23:55.660Z,14.22
2018-08-12T00:24:55.630Z,14.20
2018-08-12T00:25:55.658Z,14.17
2018-08-12T00:26:55.609Z,14.20
2018-08-12T00:27:55.600Z,14.23
2018-08-12T00:28:55.626Z,14.22
2018-08-12T00:29:55.615Z,14.25
2018-08-12T00:30:55.566Z,14.22
2018-08-12T00:31:55.579Z,14.26
2018-08-12T00:32:55.544Z,14.22
2018-08-12T00:33:55.555Z,14.25
2018-08-12T00:34:55.518Z,14.29
2018-08-12T00:35:55.535Z,14.32
2018-08-12T00:36:55.522Z,14.20
2018-08-12T00:37:55.521Z,14.29
2018-08-12T00:38:55.472Z,14.33
2018-08-12T00:39:55.470Z,14.30
2018-08-12T00:40:55.492Z,14.29
2018-08-12T00:41:55.439Z,14.29
2018-08-12T00:42:55.430Z,14.22
2018-08-12T00:43:55.431Z,14.18
2018-08-12T00:44:55.404Z,14.23
2018-08-12T00:45:55.430Z,14.29
2018-08-12T00:46:55.458Z,14.17
2018-08-12T00:47:55.369Z,14.20
2018-08-12T00:48:55.361Z,14.20
2018-08-12T00:49:56.152Z,14.29
2018-08-12T00:50:55.336Z,14.29
2018-08-12T00:51:55.385Z,14.20
2018-08-12T00:52:55.315Z,14.15
2018-08-12T00:53:55.308Z,14.17
2018-08-12T00:54:55.295Z,14.15
2018-08-12T00:55:55.280Z,14.23
2018-08-12T00:56:55.302Z,14.23
2018-08-12T00:57:55.276Z,14.18
2018-08-12T00:58:55.275Z,14.17
2018-08-12T00:59:55.235Z,14.18
2018-08-12T01:00:55.254Z,14.22
2018-08-12T01:01:55.213Z,14.14
2018-08-12T01:02:55.204Z,14.11
2018-08-12T01:03:55.222Z,14.11
2018-08-12T01:04:55.187Z,14.11
2018-08-12T01:05:55.175Z,14.04
2018-08-12T01:06:55.199Z,14.00
2018-08-12T01:07:55.148Z,14.03
2018-08-12T01:08:55.177Z,14.03
2018-08-12T01:09:55.122Z,14.00
2018-08-12T01:10:55.128Z,14.04
2018-08-12T01:11:55.109Z,14.05
2018-08-12T01:12:55.102Z,13.99
2018-08-12T01:13:55.160Z,14.03
2018-08-12T01:14:55.104Z,13.96
2018-08-12T01:15:55.119Z,13.95
2018-08-12T01:16:55.044Z,13.85
2018-08-12T01:17:55.033Z,13.79
2018-08-12T01:18:55.044Z,13.75
2018-08-12T01:19:55.043Z,13.72
2018-08-12T01:20:55.009Z,13.72
2018-08-12T01:21:54.987Z,13.77
2018-08-12T01:22:54.988Z,13.72
2018-08-12T01:23:54.975Z,13.74
2018-08-12T01:24:54.987Z,13.68
2018-08-12T01:25:54.943Z,13.63
2018-08-12T01:26:54.935Z,13.59
2018-08-12T01:27:54.924Z,13.59
2018-08-12T01:28:54.910Z,13.57
2018-08-12T01:29:54.997Z,13.62
2018-08-12T01:30:54.899Z,13.52
2018-08-12T01:31:54.874Z,13.56
2018-08-12T01:32:54.869Z,13.59
2018-08-12T01:33:54.859Z,13.47
2018-08-12T01:34:54.873Z,13.42
2018-08-12T01:35:54.956Z,13.41
2018-08-12T01:36:54.867Z,13.46
2018-08-12T01:37:54.816Z,13.41
2018-08-12T01:38:54.796Z,13.35
2018-08-12T01:39:54.813Z,13.30
2018-08-12T01:40:54.809Z,13.33
2018-08-12T01:41:54.766Z,13.31
2018-08-12T01:42:54.756Z,13.25
2018-08-12T01:43:54.754Z,13.27
2018-08-12T01:44:54.728Z,13.27
2018-08-12T01:45:54.756Z,13.23
2018-08-12T01:46:54.703Z,13.27
2018-08-12T01:47:54.696Z,13.22
2018-08-12T01:48:54.753Z,13.27
2018-08-12T01:49:54.670Z,13.13
2018-08-12T01:50:54.706Z,13.15
2018-08-12T01:51:54.650Z,13.18
2018-08-12T01:52:54.642Z,13.09
2018-08-12T01:53:54.632Z,13.16
2018-08-12T01:54:54.641Z,13.12
2018-08-12T01:55:54.606Z,13.11
2018-08-12T01:56:54.604Z,13.08
2018-08-12T01:57:54.623Z,13.16
2018-08-12T01:58:54.573Z,13.09
2018-08-12T01:59:54.563Z,13.11
2018-08-12T02:00:54.545Z,13.20
2018-08-12T02:01:54.567Z,13.16
2018-08-12T02:02:54.526Z,13.16
2018-08-12T02:03:54.520Z,13.12
2018-08-12T02:04:54.511Z,13.11
2018-08-12T02:05:54.499Z,13.11
2018-08-12T02:06:54.521Z,13.01
2018-08-12T02:07:54.464Z,13.05
2018-08-12T02:08:54.457Z,13.11
2018-08-12T02:09:54.466Z,13.03
2018-08-12T02:10:54.434Z,13.03
2018-08-12T02:11:54.448Z,13.12
2018-08-12T02:12:54.485Z,13.01
2018-08-12T02:13:54.397Z,13.03
2018-08-12T02:14:54.419Z,13.05
2018-08-12T02:15:54.395Z,13.05
2018-08-12T02:16:54.416Z,13.08
2018-08-12T02:17:54.352Z,13.04
2018-08-12T02:18:54.340Z,13.11
2018-08-12T02:19:54.331Z,13.05
2018-08-12T02:20:54.318Z,13.08
2018-08-12T02:21:54.356Z,13.11
2018-08-12T02:22:54.327Z,13.04
2018-08-12T02:23:54.288Z,13.13
2018-08-12T02:24:54.272Z,13.11
2018-08-12T02:25:54.263Z,13.13
2018-08-12T02:26:54.253Z,13.09
2018-08-12T02:27:54.310Z,13.08
2018-08-12T02:28:54.340Z,13.00
2018-08-12T02:29:54.222Z,13.05
2018-08-12T02:30:54.208Z,13.04
2018-08-12T02:31:54.201Z,13.04
2018-08-12T02:32:54.248Z,13.05
2018-08-12T02:33:54.206Z,13.03
2018-08-12T02:34:54.166Z,12.95
2018-08-12T02:35:54.149Z,12.94
2018-08-12T02:36:54.170Z,12.97
2018-08-12T02:37:54.132Z,12.93
2018-08-12T02:38:54.116Z,12.93
2018-08-12T02:39:54.121Z,12.94
2018-08-12T02:40:54.133Z,12.87
2018-08-12T02:41:54.108Z,12.91
2018-08-12T02:42:54.095Z,12.93
2018-08-12T02:43:54.063Z,12.80
2018-08-12T02:44:54.054Z,12.79
2018-08-12T02:45:54.046Z,12.75
2018-08-12T02:46:54.029Z,12.79
2018-08-12T02:47:54.076Z,12.76
2018-08-12T02:48:54.056Z,12.79
2018-08-12T02:49:53.995Z,12.82
2018-08-12T02:50:54.008Z,12.73
2018-08-12T02:51:53.972Z,12.70
2018-08-12T02:52:54.010Z,12.73
2018-08-12T02:53:53.989Z,12.78
2018-08-12T02:54:53.965Z,12.82
2018-08-12T02:55:54.005Z,12.80
2018-08-12T02:56:53.917Z,12.82
2018-08-12T02:57:53.905Z,12.79
2018-08-12T02:58:53.899Z,12.73
2018-08-12T02:59:53.949Z,12.78
2018-08-12T03:00:53.884Z,12.68
2018-08-12T03:01:53.857Z,12.68
2018-08-12T03:02:53.884Z,12.70
2018-08-12T03:03:53.844Z,12.68
2018-08-12T03:04:53.853Z,12.67
2018-08-12T03:05:53.812Z,12.72
2018-08-12T03:06:53.804Z,12.68
2018-08-12T03:07:53.848Z,12.68
2018-08-12T03:08:53.780Z,12.78
2018-08-12T03:09:53.764Z,12.65
2018-08-12T03:10:53.817Z,12.70
2018-08-12T03:11:53.750Z,12.70
2018-08-12T03:12:53.738Z,12.67
2018-08-12T03:13:53.728Z,12.68
2018-08-12T03:14:53.742Z,12.72
2018-08-12T03:15:53.731Z,12.62
2018-08-12T03:16:53.692Z,12.72
2018-08-12T03:17:53.688Z,12.70
2018-08-12T03:18:53.709Z,12.65
2018-08-12T03:19:53.667Z,12.72
2018-08-12T03:20:53.650Z,12.67
2018-08-12T03:21:53.670Z,12.72
2018-08-12T03:22:53.625Z,12.67
2018-08-12T03:23:53.618Z,12.67
2018-08-12T03:24:53.635Z,12.67
2018-08-12T03:25:53.590Z,12.65
2018-08-12T03:26:53.604Z,12.72
2018-08-12T03:27:53.577Z,12.68
2018-08-12T03:28:53.557Z,12.65
2018-08-12T03:29:53.622Z,12.68
2018-08-12T03:30:53.586Z,12.80
2018-08-12T03:31:53.533Z,12.78
2018-08-12T03:32:53.573Z,12.76
2018-08-12T03:33:53.501Z,12.82
2018-08-12T03:34:53.551Z,12.85
2018-08-12T03:35:53.538Z,12.90
2018-08-12T03:36:53.499Z,12.94
2018-08-12T03:37:53.453Z,12.95
2018-08-12T03:38:53.456Z,12.93
2018-08-12T03:39:53.433Z,12.86
2018-08-12T03:40:53.422Z,12.93
2018-08-12T03:41:53.461Z,12.98
2018-08-12T03:42:53.441Z,12.95
2018-08-12T03:43:53.400Z,13.04
2018-08-12T03:44:53.376Z,12.98
2018-08-12T03:45:53.426Z,13.03
2018-08-12T03:46:53.358Z,13.04
2018-08-12T03:47:53.356Z,13.08
2018-08-12T03:48:53.396Z,13.04
2018-08-12T03:49:53.384Z,13.05
2018-08-12T03:50:53.374Z,13.05
2018-08-12T03:51:53.313Z,12.98
2018-08-12T03:52:53.288Z,13.05
2018-08-12T03:53:53.290Z,13.11
2018-08-12T03:54:53.478Z,13.11
2018-08-12T03:55:53.254Z,13.08
2018-08-12T03:56:53.240Z,13.12
2018-08-12T03:57:53.268Z,13.11
2018-08-12T03:58:53.220Z,13.08
2018-08-12T03:59:53.219Z,13.11
2018-08-12T04:00:53.199Z,13.04
2018-08-12T04:01:53.188Z,13.05
2018-08-12T04:02:53.210Z,13.03
2018-08-12T04:03:53.183Z,13.04
2018-08-12T04:04:53.201Z,13.01
2018-08-12T04:05:53.152Z,13.01
2018-08-12T04:06:53.163Z,12.94
2018-08-12T04:07:53.175Z,12.95
2018-08-12T04:08:53.106Z,12.95
2018-08-12T04:09:53.242Z,12.97
2018-08-12T04:10:53.083Z,12.98
2018-08-12T04:11:53.188Z,12.98
2018-08-12T04:12:53.111Z,13.01
2018-08-12T04:13:53.050Z,12.97
2018-08-12T04:14:53.051Z,12.98
2018-08-12T04:15:53.029Z,12.94
2018-08-12T04:16:53.011Z,12.98
2018-08-12T04:17:53.067Z,12.97
2018-08-12T04:18:53.004Z,13.01
2018-08-12T04:19:53.002Z,13.03
2018-08-12T04:20:53.012Z,13.00
2018-08-12T04:21:52.959Z,12.97
2018-08-12T04:22:52.952Z,13.01
2018-08-12T04:23:52.937Z,13.03
2018-08-12T04:24:52.923Z,13.04
2018-08-12T04:25:52.960Z,13.01
2018-08-12T04:26:52.904Z,13.01
2018-08-12T04:27:52.900Z,13.04
2018-08-12T04:28:52.878Z,13.03
2018-08-12T04:29:52.879Z,13.05
2018-08-12T04:30:52.890Z,13.03
2018-08-12T04:31:52.859Z,13.05
2018-08-12T04:32:52.835Z,13.12
2018-08-12T04:33:52.827Z,13.13
2018-08-12T04:34:52.810Z,13.15
2018-08-12T04:35:52.846Z,13.15
2018-08-12T04:36:52.795Z,13.11
2018-08-12T04:37:52.777Z,13.13
2018-08-12T04:38:52.781Z,13.12
2018-08-12T04:39:52.751Z,13.12
2018-08-12T04:40:52.779Z,13.09
2018-08-12T04:41:52.762Z,13.25
2018-08-12T04:42:52.724Z,13.18
2018-08-12T04:43:52.746Z,13.16
2018-08-12T04:44:52.709Z,13.15
2018-08-12T04:45:52.699Z,13.25
2018-08-12T04:46:52.677Z,13.27
2018-08-12T04:47:52.669Z,13.27
2018-08-12T04:48:52.683Z,13.25
2018-08-12T04:49:52.639Z,13.30
2018-08-12T04:50:52.664Z,13.31
2018-08-12T04:51:52.651Z,13.27
2018-08-12T04:52:52.605Z,13.37
2018-08-12T04:53:52.624Z,13.28
2018-08-12T04:54:52.609Z,13.38
2018-08-12T04:55:52.592Z,13.41
2018-08-12T04:56:52.599Z,13.41
2018-08-12T04:57:52.554Z,13.47
2018-08-12T04:58:52.549Z,13.53
2018-08-12T04:59:52.560Z,13.53
2018-08-12T05:00:52.530Z,13.53
2018-08-12T05:01:52.507Z,13.59
2018-08-12T05:02:52.501Z,13.65
2018-08-12T05:03:52.486Z,13.67
2018-08-12T05:04:52.506Z,13.71
2018-08-12T05:05:52.468Z,13.75
2018-08-12T05:06:52.452Z,13.72
2018-08-12T05:07:52.453Z,13.83
2018-08-12T05:08:52.466Z,13.90
2018-08-12T05:09:52.421Z,13.87
2018-08-12T05:10:52.465Z,13.92
2018-08-12T05:11:52.468Z,14.08
2018-08-12T05:12:52.393Z,14.11
2018-08-12T05:13:52.374Z,14.18
2018-08-12T05:14:52.415Z,14.18
2018-08-12T05:15:52.395Z,14.17
2018-08-12T05:16:52.345Z,14.22
2018-08-12T05:17:52.355Z,14.25
2018-08-12T05:18:52.322Z,14.29
2018-08-12T05:19:52.317Z,14.33
2018-08-12T05:20:52.291Z,14.36
2018-08-12T05:21:52.293Z,14.43
2018-08-12T05:22:52.307Z,14.41
2018-08-12T05:23:52.441Z,14.51
2018-08-12T05:24:52.255Z,14.45
2018-08-12T05:25:52.244Z,14.51
2018-08-12T05:26:52.283Z,14.72
2018-08-12T05:27:52.217Z,14.69
2018-08-12T05:28:52.205Z,14.78
2018-08-12T05:29:52.207Z,14.73
2018-08-12T05:30:52.200Z,14.82
2018-08-12T05:31:52.197Z,14.89
2018-08-12T05:32:52.162Z,14.92
2018-08-12T05:33:52.149Z,14.94
2018-08-12T05:34:52.177Z,14.97
2018-08-12T05:35:52.128Z,14.92
2018-08-12T05:36:52.127Z,15.07
2018-08-12T05:37:52.102Z,15.15
2018-08-12T05:38:52.124Z,15.04
2018-08-12T05:39:52.093Z,15.11
2018-08-12T05:40:52.101Z,15.21
2018-08-12T05:41:52.067Z,15.18
2018-08-12T05:42:52.057Z,15.27
2018-08-12T05:43:52.041Z,15.29
2018-08-12T05:44:52.057Z,15.31
2018-08-12T05:45:52.063Z,15.28
2018-08-12T05:46:52.039Z,15.33
2018-08-12T05:47:52.002Z,15.46
2018-08-12T05:48:52.017Z,15.44
2018-08-12T05:49:51.976Z,15.43
2018-08-12T05:50:51.958Z,15.47
2018-08-12T05:51:51.948Z,15.57
2018-08-12T05:52:51.958Z,15.59
2018-08-12T05:53:51.929Z,15.65
2018-08-12T05:54:51.946Z,15.61
2018-08-12T05:55:51.898Z,15.61
2018-08-12T05:56:51.931Z,15.64
2018-08-12T05:57:51.880Z,15.61
2018-08-12T05:58:51.882Z,15.76
2018-08-12T05:59:51.888Z,15.84
2018-08-12T06:00:51.850Z,15.90
2018-08-12T06:01:51.909Z,15.84
2018-08-12T06:02:51.898Z,15.98
2018-08-12T06:03:51.817Z,15.94
2018-08-12T06:04:51.826Z,16.04
2018-08-12T06:05:51.791Z,16.10
2018-08-12T06:06:51.802Z,16.10
2018-08-12T06:07:51.767Z,16.17
2018-08-12T06:08:51.775Z,16.24
2018-08-12T06:09:51.797Z,16.24
2018-08-12T06:10:51.735Z,16.36
2018-08-12T06:11:51.724Z,16.38
2018-08-12T06:12:51.710Z,16.49
2018-08-12T06:13:51.697Z,16.46
2018-08-12T06:14:51.757Z,16.51
2018-08-12T06:15:51.680Z,16.41
2018-08-12T06:16:51.668Z,16.50
2018-08-12T06:17:51.656Z,16.50
2018-08-12T06:18:51.666Z,16.58
2018-08-12T06:19:51.695Z,16.56
2018-08-12T06:20:51.622Z,16.64
2018-08-12T06:21:51.614Z,16.54
2018-08-12T06:22:51.654Z,16.64
2018-08-12T06:23:51.611Z,16.76
2018-08-12T06:24:51.583Z,16.64
2018-08-12T06:25:51.641Z,16.69
2018-08-12T06:26:51.581Z,16.72
2018-08-12T06:27:51.568Z,16.66
2018-08-12T06:28:51.534Z,16.64
2018-08-12T06:29:51.527Z,16.81
2018-08-12T06:30:51.557Z,16.81
2018-08-12T06:31:51.504Z,16.81
2018-08-12T06:32:51.491Z,16.84
2018-08-12T06:33:51.476Z,16.83
2018-08-12T06:34:51.497Z,16.84
2018-08-12T06:35:51.498Z,16.89
2018-08-12T06:36:51.449Z,16.89
2018-08-12T06:37:51.467Z,16.91
2018-08-12T06:38:51.427Z,16.99
2018-08-12T06:39:51.460Z,16.94
2018-08-12T06:40:51.421Z,16.97
2018-08-12T06:41:51.384Z,17.05
2018-08-12T06:42:51.433Z,17.08
2018-08-12T06:43:51.405Z,16.96
2018-08-12T06:44:51.352Z,17.09
2018-08-12T06:45:51.339Z,17.09
2018-08-12T06:46:51.373Z,17.09
2018-08-12T06:47:51.366Z,17.11
2018-08-12T06:48:51.303Z,17.23
2018-08-12T06:49:51.310Z,17.19
2018-08-12T06:50:51.298Z,17.26
2018-08-12T06:51:51.306Z,17.30
2018-08-12T06:52:51.260Z,17.29
2018-08-12T06:53:51.255Z,17.33
2018-08-12T06:54:51.291Z,17.29
2018-08-12T06:55:51.224Z,17.34
2018-08-12T06:56:51.221Z,17.42
2018-08-12T06:57:51.200Z,17.44
2018-08-12T06:58:51.187Z,17.52
2018-08-12T06:59:51.221Z,17.59
2018-08-12T07:00:51.207Z,17.57
2018-08-12T07:01:51.202Z,17.67
2018-08-12T07:02:51.147Z,17.60
2018-08-12T07:03:51.150Z,17.67
2018-08-12T07:04:51.127Z,17.60
2018-08-12T07:05:51.231Z,17.80
2018-08-12T07:06:51.122Z,17.72
2018-08-12T07:07:51.121Z,17.76
2018-08-12T07:08:51.092Z,17.79
2018-08-12T07:09:51.077Z,17.92
2018-08-12T07:10:51.073Z,17.89
2018-08-12T07:11:51.066Z,17.83
2018-08-12T07:12:51.097Z,17.86
2018-08-12T07:13:51.030Z,17.94
2018-08-12T07:14:51.012Z,17.94
2018-08-12T07:15:51.104Z,18.03
2018-08-12T07:16:50.992Z,18.11
2018-08-12T07:17:51.022Z,18.05
2018-08-12T07:18:50.966Z,18.15
2018-08-12T07:19:50.985Z,18.20
2018-08-12T07:20:50.940Z,18.07
2018-08-12T07:21:50.969Z,18.18
2018-08-12T07:22:50.986Z,18.25
2018-08-12T07:23:50.980Z,18.22
2018-08-12T07:24:50.951Z,18.29
2018-08-12T07:25:51.809Z,18.38
2018-08-12T07:26:50.874Z,18.44
2018-08-12T07:27:50.892Z,18.41
2018-08-12T07:28:50.889Z,18.58
2018-08-12T07:29:50.867Z,18.70
2018-08-12T07:30:50.837Z,18.59
2018-08-12T07:31:50.869Z,18.63
2018-08-12T07:32:50.842Z,18.60
2018-08-12T07:33:50.805Z,18.78
2018-08-12T07:34:50.795Z,18.75
2018-08-12T07:35:51.172Z,18.74
2018-08-12T07:36:50.764Z,18.78
2018-08-12T07:37:50.751Z,18.88
2018-08-12T07:38:50.969Z,18.84
2018-08-12T07:39:50.758Z,18.93
2018-08-12T07:40:50.750Z,18.88
2018-08-12T07:41:50.728Z,18.92
2018-08-12T07:42:50.729Z,18.93
2018-08-12T07:43:50.721Z,18.99
2018-08-12T07:44:50.743Z,19.00
2018-08-12T07:45:50.675Z,19.09
2018-08-12T07:46:50.655Z,19.08
2018-08-12T07:47:50.680Z,19.04
2018-08-12T07:48:50.667Z,19.12
2018-08-12T07:49:50.645Z,19.12
2018-08-12T07:50:50.638Z,19.16
2018-08-12T07:51:50.593Z,19.15
2018-08-12T07:52:50.582Z,19.26
2018-08-12T07:53:50.573Z,19.22
2018-08-12T07:54:50.565Z,19.27
2018-08-12T07:55:50.659Z,19.34
2018-08-12T07:56:50.539Z,19.31
2018-08-12T07:57:50.540Z,19.41
2018-08-12T07:58:50.569Z,19.39
2018-08-12T07:59:50.520Z,19.41
2018-08-12T08:00:50.506Z,19.54
2018-08-12T08:01:50.509Z,19.55
2018-08-12T08:02:50.495Z,19.63
2018-08-12T08:03:50.496Z,19.69
2018-08-12T08:04:50.451Z,19.77
2018-08-12T08:05:50.496Z,19.59
2018-08-12T08:06:50.472Z,19.74
2018-08-12T08:07:50.418Z,19.76
2018-08-12T08:08:50.414Z,19.84
2018-08-12T08:09:50.428Z,19.92
2018-08-12T08:10:50.381Z,20.00
2018-08-12T08:11:50.413Z,20.06
2018-08-12T08:12:50.368Z,19.95
2018-08-12T08:13:50.347Z,20.03
2018-08-12T08:14:50.333Z,20.14
2018-08-12T08:15:50.329Z,20.16
2018-08-12T08:16:50.364Z,20.29
2018-08-12T08:17:50.323Z,20.25
2018-08-12T08:18:50.300Z,20.36
2018-08-12T08:19:50.440Z,20.47
2018-08-12T08:20:50.351Z,20.43
2018-08-12T08:21:50.256Z,20.52
2018-08-12T08:22:50.260Z,20.58
2018-08-12T08:23:50.241Z,20.60
2018-08-12T08:24:50.231Z,20.66
2018-08-12T08:25:50.301Z,20.65
2018-08-12T08:26:50.207Z,20.75
2018-08-12T08:27:50.190Z,20.75
2018-08-12T08:28:50.189Z,20.78
2018-08-12T08:29:50.236Z,20.84
2018-08-12T08:30:50.165Z,20.84
2018-08-12T08:31:50.361Z,20.81
2018-08-12T08:32:50.198Z,20.84
2018-08-12T08:33:50.127Z,20.93
2018-08-12T08:34:50.142Z,20.96
2018-08-12T08:35:50.112Z,20.93
2018-08-12T08:36:50.094Z,20.95
2018-08-12T08:37:50.149Z,20.96
2018-08-12T08:38:50.070Z,20.95
2018-08-12T08:39:50.147Z,21.02
2018-08-12T08:40:50.056Z,21.03
2018-08-12T08:41:50.071Z,21.02
2018-08-12T08:42:50.036Z,21.09
2018-08-12T08:43:50.106Z,21.07
2018-08-12T08:44:50.000Z,21.15
2018-08-12T08:45:49.997Z,21.21
2018-08-12T08:46:49.980Z,21.25
2018-08-12T08:47:49.997Z,21.29
2018-08-12T08:48:49.962Z,21.37
2018-08-12T08:49:50.000Z,21.39
2018-08-12T08:50:50.015Z,21.43
2018-08-12T08:51:49.966Z,21.50
2018-08-12T08:52:49.908Z,21.57
2018-08-12T08:53:49.908Z,21.52
2018-08-12T08:54:49.896Z,21.55
2018-08-12T08:55:49.993Z,21.57
2018-08-12T08:56:49.896Z,21.62
2018-08-12T08:57:49.862Z,21.60
2018-08-12T08:58:49.846Z,21.72
2018-08-12T08:59:49.844Z,21.75
2018-08-12T09:00:49.855Z,21.67
2018-08-12T09:01:49.812Z,21.76
2018-08-12T09:02:49.808Z,21.89
2018-08-12T09:03:49.807Z,21.95
2018-08-12T09:04:49.818Z,22.06
2018-08-12T09:05:49.975Z,22.10
2018-08-12T09:06:49.808Z,22.08
2018-08-12T09:07:49.762Z,22.13
2018-08-12T09:08:50.008Z,22.30
2018-08-12T09:09:49.788Z,22.22
2018-08-12T09:10:49.787Z,22.25
2018-08-12T09:11:49.805Z,22.28
2018-08-12T09:12:49.693Z,22.25
2018-08-12T09:13:49.706Z,22.41
2018-08-12T09:14:49.726Z,22.43
2018-08-12T09:15:49.686Z,22.47
2018-08-12T09:16:49.671Z,22.48
2018-08-12T09:17:49.640Z,22.60
2018-08-12T09:18:49.626Z,22.63
2018-08-12T09:19:50.265Z,22.63
2018-08-12T09:20:49.662Z,22.63
2018-08-12T09:21:49.596Z,22.68
2018-08-12T09:22:49.590Z,22.72
2018-08-12T09:23:49.617Z,22.70
2018-08-12T09:24:49.620Z,22.72
2018-08-12T09:25:49.599Z,22.75
2018-08-12T09:26:49.535Z,22.84
2018-08-12T09:27:49.535Z,22.94
2018-08-12T09:28:49.524Z,22.94
2018-08-12T09:29:49.504Z,22.96
2018-08-12T09:30:49.530Z,23.02
2018-08-12T09:31:49.487Z,23.00
2018-08-12T09:32:49.470Z,23.03
2018-08-12T09:33:49.456Z,23.00
2018-08-12T09:34:49.496Z,23.03
2018-08-12T09:35:49.443Z,23.15
2018-08-12T09:36:49.445Z,23.18
2018-08-12T09:37:49.431Z,23.17
2018-08-12T09:38:49.402Z,23.20
2018-08-12T09:39:49.419Z,23.34
2018-08-12T09:40:49.381Z,23.13
2018-08-12T09:41:49.415Z,23.31
2018-08-12T09:42:49.380Z,23.31
2018-08-12T09:43:49.411Z,23.34
2018-08-12T09:44:49.418Z,23.39
2018-08-12T09:45:49.322Z,23.27
2018-08-12T09:46:49.322Z,23.47
2018-08-12T09:47:49.321Z,23.47
2018-08-12T09:48:49.330Z,23.50
2018-08-12T09:49:49.283Z,23.58
2018-08-12T09:50:49.264Z,23.58
2018-08-12T09:51:49.394Z,23.65
2018-08-12T09:52:49.256Z,23.71
2018-08-12T09:53:49.315Z,23.69
2018-08-12T09:54:49.223Z,23.80
2018-08-12T09:55:49.288Z,23.83
2018-08-12T09:56:49.244Z,23.80
2018-08-12T09:57:49.202Z,23.84
2018-08-12T09:58:49.186Z,23.81
2018-08-12T09:59:49.177Z,23.84
2018-08-12T10:00:49.202Z,23.83
2018-08-12T10:01:49.187Z,23.98
2018-08-12T10:02:49.172Z,23.93
2018-08-12T10:03:49.133Z,24.03
2018-08-12T10:04:49.138Z,24.03
2018-08-12T10:05:49.099Z,24.16
2018-08-12T10:06:49.118Z,24.23
2018-08-12T10:07:49.132Z,24.23
2018-08-12T10:08:49.080Z,24.20
2018-08-12T10:09:49.087Z,24.17
2018-08-12T10:10:49.042Z,24.18
2018-08-12T10:11:49.036Z,24.18
2018-08-12T10:12:49.068Z,24.20
2018-08-12T10:13:49.042Z,24.18
2018-08-12T10:14:49.005Z,24.18
2018-08-12T10:15:49.141Z,24.23
2018-08-12T10:16:49.018Z,24.20
2018-08-12T10:17:48.994Z,24.29
2018-08-12T10:18:48.981Z,24.38
2018-08-12T10:19:48.962Z,24.38
2018-08-12T10:20:48.987Z,24.43
2018-08-12T10:21:48.964Z,24.48
2018-08-12T10:22:48.920Z,24.42
2018-08-12T10:23:48.903Z,24.47
2018-08-12T10:24:48.896Z,24.53
2018-08-12T10:25:48.914Z,24.60
2018-08-12T10:26:48.876Z,24.55
2018-08-12T10:27:48.877Z,24.48
2018-08-12T10:28:48.846Z,24.51
2018-08-12T10:29:48.836Z,24.40
2018-08-12T10:30:48.858Z,24.42
2018-08-12T10:31:48.849Z,24.43
2018-08-12T10:32:48.816Z,24.45
2018-08-12T10:33:48.816Z,24.45
2018-08-12T10:34:48.777Z,24.42
2018-08-12T10:35:48.776Z,24.47
2018-08-12T10:36:48.765Z,24.45
2018-08-12T10:37:48.759Z,24.45
2018-08-12T10:38:48.771Z,24.54
2018-08-12T10:39:48.727Z,24.57
2018-08-12T10:40:48.709Z,24.54
2018-08-12T10:41:48.707Z,24.63
2018-08-12T10:42:48.721Z,24.60
2018-08-12T10:43:48.679Z,24.61
2018-08-12T10:44:48.710Z,24.57
2018-08-12T10:45:48.661Z,24.53
2018-08-12T10:46:48.640Z,24.53
2018-08-12T10:47:48.740Z,24.51
2018-08-12T10:48:48.666Z,24.48
2018-08-12T10:49:48.652Z,24.43
2018-08-12T10:50:48.661Z,24.55
2018-08-12T10:51:48.644Z,24.47
2018-08-12T10:52:48.588Z,24.51
2018-08-12T10:53:48.571Z,24.57
2018-08-12T10:54:48.589Z,24.66
2018-08-12T10:55:48.578Z,24.78
2018-08-12T10:56:48.565Z,24.77
2018-08-12T10:57:48.526Z,24.76
2018-08-12T10:58:48.520Z,24.80
2018-08-12T10:59:48.498Z,24.85
2018-08-12T11:00:48.621Z,24.92
2018-08-12T11:01:48.503Z,24.95
2018-08-12T11:02:48.468Z,24.92
2018-08-12T11:03:48.456Z,24.88
2018-08-12T11:04:48.449Z,25.08
2018-08-12T11:05:48.466Z,25.04
2018-08-12T11:06:48.430Z,24.99
2018-08-12T11:07:48.420Z,25.13
2018-08-12T11:08:48.410Z,25.06
2018-08-12T11:09:48.400Z,25.11
2018-08-12T11:10:48.426Z,25.11
2018-08-12T11:11:48.379Z,25.07
2018-08-12T11:12:48.470Z,25.11
2018-08-12T11:13:48.349Z,25.21
2018-08-12T11:14:48.342Z,25.25
2018-08-12T11:15:48.371Z,25.28
2018-08-12T11:16:48.312Z,25.31
2018-08-12T11:17:48.312Z,25.38
2018-08-12T11:18:48.354Z,25.29
2018-08-12T11:19:48.294Z,25.35
2018-08-12T11:20:48.299Z,25.43
2018-08-12T11:21:48.265Z,25.46
2018-08-12T11:22:48.376Z,25.36
2018-08-12T11:23:48.247Z,25.43
2018-08-12T11:24:48.227Z,25.47
2018-08-12T11:25:48.225Z,25.40
2018-08-12T11:26:48.204Z,25.46
2018-08-12T11:27:48.497Z,25.46
2018-08-12T11:28:48.189Z,25.50
2018-08-12T11:29:48.216Z,25.51
2018-08-12T11:30:48.160Z,25.54
2018-08-12T11:31:48.228Z,25.54
2018-08-12T11:32:48.322Z,25.58
2018-08-12T11:33:48.375Z,25.62
2018-08-12T11:34:48.254Z,25.62
2018-08-12T11:35:48.107Z,25.69
2018-08-12T11:36:48.092Z,25.68
2018-08-12T11:37:48.140Z,25.70
2018-08-12T11:38:48.081Z,25.73
2018-08-12T11:39:48.093Z,25.69
2018-08-12T11:40:48.090Z,25.68
2018-08-12T11:41:48.039Z,25.66
2018-08-12T11:42:48.060Z,25.73
2018-08-12T11:43:48.101Z,25.75
2018-08-12T11:44:48.006Z,25.77
2018-08-12T11:45:48.005Z,25.78
2018-08-12T11:46:47.983Z,25.87
2018-08-12T11:47:48.003Z,25.83
2018-08-12T11:48:47.960Z,25.80
2018-08-12T11:49:47.983Z,25.83
2018-08-12T11:50:47.964Z,25.90
2018-08-12T11:51:47.930Z,25.91
2018-08-12T11:52:47.913Z,25.98
2018-08-12T11:53:47.912Z,25.93
2018-08-12T11:54:47.925Z,25.90
2018-08-12T11:55:47.912Z,25.88
2018-08-12T11:56:47.873Z,25.84
2018-08-12T11:57:47.868Z,25.81
2018-08-12T11:58:47.883Z,25.78
2018-08-12T11:59:47.834Z,25.78
2018-08-12T12:00:47.865Z,25.75
2018-08-12T12:01:47.831Z,25.77
2018-08-12T12:02:47.820Z,25.85
2018-08-12T12:03:47.796Z,25.87
2018-08-12T12:04:47.782Z,25.83
2018-08-12T12:05:47.805Z,25.96
2018-08-12T12:06:47.774Z,25.99
2018-08-12T12:07:47.783Z,26.00
2018-08-12T12:08:47.747Z,25.98
2018-08-12T12:09:47.726Z,25.99
2018-08-12T12:10:47.755Z,26.06
2018-08-12T12:11:47.708Z,25.99
2018-08-12T12:12:47.696Z,26.00
2018-08-12T12:13:47.684Z,26.02
2018-08-12T12:14:47.674Z,25.99
2018-08-12T12:15:47.697Z,26.02
2018-08-12T12:16:47.659Z,26.07
2018-08-12T12:17:47.638Z,26.09
2018-08-12T12:18:47.641Z,26.15
2018-08-12T12:19:47.642Z,26.09
2018-08-12T12:20:47.630Z,26.06
2018-08-12T12:21:47.600Z,26.03
2018-08-12T12:22:47.692Z,25.99
2018-08-12T12:23:47.601Z,25.98
2018-08-12T12:24:47.565Z,26.02
2018-08-12T12:25:47.580Z,25.99
2018-08-12T12:26:47.546Z,25.96
2018-08-12T12:27:47.572Z,26.03
2018-08-12T12:28:47.523Z,26.10
2018-08-12T12:29:47.505Z,26.22
2018-08-12T12:30:47.505Z,26.28
2018-08-12T12:31:47.512Z,26.31
2018-08-12T12:32:47.504Z,26.44
2018-08-12T12:33:47.460Z,26.52
2018-08-12T12:34:47.449Z,26.56
2018-08-12T12:35:47.461Z,26.60
2018-08-12T12:36:47.434Z,26.85
2018-08-12T12:37:47.512Z,26.96
2018-08-12T12:38:47.414Z,27.10
2018-08-12T12:39:47.448Z,27.25
2018-08-12T12:40:47.385Z,27.40
2018-08-12T12:41:47.373Z,27.48
2018-08-12T12:42:47.444Z,27.70
2018-08-12T12:43:47.397Z,27.90
2018-08-12T12:44:47.389Z,28.10
2018-08-12T12:45:54.395Z,28.22
2018-08-12T12:46:47.317Z,28.39
2018-08-12T12:47:47.385Z,28.45
2018-08-12T12:48:47.305Z,28.69
2018-08-12T12:49:47.315Z,28.85
2018-08-12T12:50:47.282Z,28.97
2018-08-12T12:51:47.275Z,29.10
2018-08-12T12:52:47.919Z,29.22